• Join FlightAware (Why Join?)
  • Login
  • US Flag 
04:47AM EDT


 

Airport Tracker/Info


-or-


 

Live Flight TrackerFlight Track Log ✈ AFR1068 ✈ 18-Apr-2013 ✈ LFPG / CDG - EGCC / MAN

Flight Track Log - Related Links

Times and Time Zones

All times are in EDT time to prevent confusion due to time zone crossing. See the AFR1068 flight status page for this flight to view local times or setup timezone preferences in your user account.

Time Position Orientation Groundspeed Altitude Reporting Facility
EDT Latitude Longitude Course Direction KTS MPH feet Rate Location/Type
07:22AM 49.1770 2.3867 327° Northwest  Level Estimated
07:23AM 49.2317 2.3320 327° Northwest  Level Estimated
07:24AM 49.2864 2.2772 327° Northwest  Level Estimated
07:25AM 49.3417 2.2216 327° Northwest  Level Estimated
07:26AM 49.3970 2.1659 327° Northwest  Level Estimated
07:27AM 49.4523 2.1100 327° Northwest  Level Estimated
07:28AM 49.5075 2.0540 327° Northwest  Level Estimated
07:29AM 49.5627 1.9979 327° Northwest  Level Estimated
07:30AM 49.6179 1.9417 327° Northwest  Level Estimated
07:31AM 49.6731 1.8853 327° Northwest  Level Estimated
07:32AM 49.7282 1.8288 326° Northwest  Level Estimated
07:33AM 49.7833 1.7722 326° Northwest  Level Estimated
07:34AM 49.8384 1.7155 326° Northwest  Level Estimated
07:35AM 49.8935 1.6586 326° Northwest  Level Estimated
07:36AM 49.9485 1.6016 326° Northwest  Level Estimated
07:37AM 50.0035 1.5444 326° Northwest  Level Estimated
07:38AM 50.0585 1.4872 326° Northwest  Level Estimated
07:39AM 50.1134 1.4298 326° Northwest  Level Estimated
07:40AM 50.1683 1.3722 326° Northwest  Level Estimated
07:41AM 50.2232 1.3146 326° Northwest  Level Estimated
07:42AM 50.2781 1.2568 326° Northwest  Level Estimated
07:43AM 50.3329 1.1988 326° Northwest  Level Estimated
07:44AM 50.3877 1.1408 326° Northwest  Level Estimated
07:45AM 50.4425 1.0826 326° Northwest  Level Estimated
07:46AM 50.4972 1.0242 326° Northwest  Level Estimated
07:47AM 50.5519 0.9657 326° Northwest  Level Estimated
07:48AM 50.6066 0.9071 326° Northwest  Level Estimated
07:49AM 50.6612 0.8484 326° Northwest  Level Estimated
07:50AM 50.7159 0.7895 326° Northwest  Level Estimated
07:51AM 50.7705 0.7305 326° Northwest  Level Estimated
07:52AM 50.8250 0.6714 326° Northwest  Level Estimated
07:53AM 50.8873 0.6036 326° Northwest  Level Estimated
07:54AM 50.9496 0.5356 326° Northwest  Level Estimated
07:55AM 51.0118 0.4675 325° Northwest  Level Estimated
07:56AM 51.0741 0.3992 325° Northwest  Level Estimated
07:57AM 51.1362 0.3307 325° Northwest  Level Estimated
07:58AM 51.1983 0.2620 325° Northwest  Level Estimated
07:59AM 51.2604 0.1931 325° Northwest  Level Estimated
08:00AM 51.3224 0.1240 325° Northwest  Level Estimated
08:01AM 51.3844 0.0548 325° Northwest  Level Estimated
08:02AM 51.4464 -0.0147 325° Northwest  Level Estimated
08:03AM 51.5083 -0.0843 325° Northwest  Level Estimated
08:04AM 51.5702 -0.1541 325° Northwest  Level Estimated
08:05AM 51.6320 -0.2241 325° Northwest  Level Estimated
08:06AM 51.6938 -0.2943 325° Northwest  Level Estimated
08:07AM 51.7556 -0.3647 325° Northwest  Level Estimated
08:08AM 51.8173 -0.4353 325° Northwest  Level Estimated
08:09AM 51.8790 -0.5060 325° Northwest  Level Estimated
08:10AM 51.9406 -0.5770 325° Northwest  Level Estimated
08:11AM 52.0022 -0.6482 325° Northwest  Level Estimated
08:12AM 52.0637 -0.7195 325° Northwest  Level Estimated
08:13AM 52.1252 -0.7911 324° Northwest  Level Estimated
08:14AM 52.1867 -0.8628 324° Northwest  Level Estimated
08:15AM 52.2481 -0.9348 324° Northwest  Level Estimated
08:16AM 52.3094 -1.0069 324° Northwest  Level Estimated
08:17AM 52.3708 -1.0793 324° Northwest  Level Estimated
08:18AM 52.4320 -1.1518 324° Northwest  Level Estimated
08:19AM 52.4933 -1.2246 324° Northwest  Level Estimated
08:20AM 52.5545 -1.2976 324° Northwest  Level Estimated
08:21AM 52.6156 -1.3707 324° Northwest  Level Estimated
08:22AM 52.6767 -1.4441 324° Northwest  Level Estimated
08:23AM 52.7377 -1.5177 324° Northwest  Level Estimated
08:24AM 52.7988 -1.5914 324° Northwest  Level Estimated
08:25AM 52.8597 -1.6654 324° Northwest  Level Estimated
08:26AM 52.9206 -1.7396 324° Northwest  Level Estimated
08:27AM 52.9815 -1.8140 324° Northwest  Level Estimated
08:28AM 53.0423 -1.8886 324° Northwest  Level Estimated
08:29AM 53.1031 -1.9635 324° Northwest  Level Estimated
08:30AM 53.1638 -2.0385 323° Northwest  Level Estimated
08:31AM 53.2245 -2.1137 323° Northwest  Level Estimated
08:32AM 53.2851 -2.1892 323° Northwest  Level Estimated
08:33AM 53.3457 -2.2649 323° Northwest  Level Estimated
08:34AM 53.3537 -2.2750 323° Northwest  Level Estimated
08:35AM 53.3537 -2.2750 North  Level Estimated
08:36AM 53.3537 -2.2750 North  Level Estimated
08:37AM 53.3537 -2.2750 North  Level Estimated
08:38AM 53.3537 -2.2750 North  Level Estimated
08:39AM 53.3537 -2.2750 North  Level Estimated
08:40AM 53.3537 -2.2750 North  Level Estimated
08:41AM 53.3537 -2.2750 North  Level Estimated
08:42AM 53.3537 -2.2750 North  Level Estimated